Time;durP1;ratioP1;P1;durP2;ratioP2;P2;SDS_P1;SDS_P2;PMS_P1;PMS_P2;Temp;Humidity;BMP_temperature;BMP_pressure;BME280_temperature;BME280_humidity;BME280_pressure;Samples;Min_cycle;Max_cycle;Signal;HPM_P1;HPM_P2
2022/06/08 00:00:49;;;;;;;1.60;1.35;;;24.10;58.90;;;;;;5074531;28;20387;-66
2022/06/08 00:03:23;;;;;;;1.60;1.30;;;24.00;58.80;;;;;;5074508;28;20383;-66
2022/06/08 00:05:49;;;;;;;1.60;1.20;;;24.00;58.80;;;;;;5074510;28;20521;-66
2022/06/08 00:08:15;;;;;;;1.75;1.17;;;24.00;58.80;;;;;;5074011;28;20471;-66
2022/06/08 00:10:41;;;;;;;1.40;1.30;;;24.00;58.80;;;;;;5074306;28;20887;-66
2022/06/08 00:13:07;;;;;;;1.50;1.20;;;24.00;58.80;;;;;;5074241;28;20411;-66
2022/06/08 00:15:33;;;;;;;1.63;1.20;;;24.00;58.80;;;;;;5074178;28;20386;-66
2022/06/08 00:17:59;;;;;;;1.40;1.20;;;24.00;58.80;;;;;;5074282;28;20423;-66
2022/06/08 00:20:24;;;;;;;1.40;1.15;;;24.00;58.80;;;;;;5073026;28;20415;-66
2022/06/08 00:22:53;;;;;;;1.30;1.20;;;24.00;58.80;;;;;;5073909;28;20395;-65
2022/06/08 00:25:20;;;;;;;2.17;1.33;;;24.00;58.80;;;;;;5073998;28;20875;-65
2022/06/08 00:27:46;;;;;;;1.58;1.30;;;24.00;58.80;;;;;;5074090;28;20392;-66
2022/06/08 00:30:12;;;;;;;1.30;1.15;;;24.00;58.80;;;;;;5073559;28;20470;-66
2022/06/08 00:32:38;;;;;;;1.30;1.20;;;24.00;58.80;;;;;;5073884;28;20408;-66
2022/06/08 00:35:05;;;;;;;1.30;1.00;;;24.00;58.80;;;;;;5073984;28;20748;-66
2022/06/08 00:37:31;;;;;;;1.70;1.23;;;24.00;58.80;;;;;;5072711;28;20425;-66
2022/06/08 00:39:57;;;;;;;1.42;1.30;;;24.00;58.80;;;;;;5073927;28;20853;-66
2022/06/08 00:42:25;;;;;;;2.55;1.10;;;23.90;58.70;;;;;;5072175;28;20880;-66
2022/06/08 00:45:04;;;;;;;1.40;1.27;;;23.90;58.80;;;;;;5073711;28;20482;-66
2022/06/08 00:47:35;;;;;;;1.65;1.20;;;23.90;58.70;;;;;;5073742;28;20395;-66
2022/06/08 00:50:12;;;;;;;1.80;1.20;;;23.90;58.80;;;;;;5073761;28;20380;-65
2022/06/08 00:52:38;;;;;;;1.40;1.30;;;23.90;58.70;;;;;;5073320;28;20522;-65
2022/06/08 00:55:09;;;;;;;1.50;1.33;;;23.90;58.70;;;;;;5073472;28;20471;-66
2022/06/08 00:57:44;;;;;;;1.50;1.40;;;23.90;58.70;;;;;;5073555;28;20735;-66
2022/06/08 01:00:12;;;;;;;1.50;1.40;;;23.90;58.80;;;;;;5073544;28;20391;-66
2022/06/08 01:02:38;;;;;;;1.85;1.33;;;23.90;58.70;;;;;;5073278;28;20876;-66
2022/06/08 01:05:30;;;;;;;1.35;1.25;;;23.90;58.70;;;;;;5073457;28;20455;-65
2022/06/08 01:08:03;;;;;;;1.60;1.40;;;23.90;58.80;;;;;;5073380;28;20872;-65
2022/06/08 01:10:34;;;;;;;1.45;1.35;;;23.90;58.70;;;;;;5072902;28;20502;-66
2022/06/08 01:13:04;;;;;;;1.67;1.58;;;23.90;58.70;;;;;;5073257;28;20400;-65
2022/06/08 01:15:32;;;;;;;2.00;1.20;;;23.90;58.70;;;;;;5073134;28;20387;-66
2022/06/08 01:17:58;;;;;;;1.52;1.10;;;23.90;58.70;;;;;;5073143;28;20611;-65
2022/06/08 01:20:24;;;;;;;1.58;1.10;;;23.80;58.70;;;;;;5072597;28;20400;-65
2022/06/08 01:22:50;;;;;;;1.60;1.30;;;23.80;58.70;;;;;;5073042;28;20388;-66
2022/06/08 01:25:16;;;;;;;2.60;1.10;;;23.80;58.70;;;;;;5072998;28;20384;-66
2022/06/08 01:28:03;;;;;;;1.20;1.00;;;23.80;58.70;;;;;;5072937;28;20742;-65
2022/06/08 01:30:54;;;;;;;1.33;1.20;;;23.80;58.60;;;;;;5072370;28;20392;-66
2022/06/08 01:33:35;;;;;;;1.40;1.05;;;23.80;58.70;;;;;;5072663;28;20415;-66
2022/06/08 01:36:38;;;;;;;1.20;1.00;;;23.80;58.60;;;;;;5071495;28;20718;-65
2022/06/08 01:39:35;;;;;;;2.03;1.20;;;23.80;58.60;;;;;;5072762;28;20434;-65
2022/06/08 01:42:25;;;;;;;1.52;1.10;;;23.80;58.60;;;;;;5072539;28;20765;-65
2022/06/08 01:47:49;;;;;;;1.70;1.02;;;23.80;58.60;;;;;;5072775;28;20391;-65
2022/06/08 01:50:44;;;;;;;1.20;1.00;;;23.80;58.70;;;;;;5072319;28;20386;-65
2022/06/08 01:53:38;;;;;;;1.60;1.38;;;23.80;58.60;;;;;;5072282;28;20503;-66
2022/06/08 01:56:11;;;;;;;1.50;1.40;;;23.80;58.70;;;;;;5072405;28;20392;-66
2022/06/08 01:58:55;;;;;;;1.50;1.10;;;23.80;58.70;;;;;;5071811;28;20929;-65
2022/06/08 02:01:28;;;;;;;1.88;1.00;;;23.80;58.70;;;;;;5072306;28;20375;-65
2022/06/08 02:04:04;;;;;;;1.48;1.00;;;23.70;58.60;;;;;;5072263;28;20395;-65
2022/06/08 02:06:41;;;;;;;1.27;1.10;;;23.70;58.60;;;;;;5071780;28;20383;-65
2022/06/08 02:09:17;;;;;;;1.10;1.00;;;23.70;58.60;;;;;;5072111;28;20395;-65
2022/06/08 02:12:08;;;;;;;1.20;1.10;;;23.70;58.60;;;;;;5072085;28;20411;-65
2022/06/08 02:14:49;;;;;;;1.52;1.20;;;23.70;58.60;;;;;;5071565;28;21217;-65
2022/06/08 02:17:39;;;;;;;1.30;1.08;;;23.80;58.60;;;;;;5071983;28;20384;-66
2022/06/08 02:20:16;;;;;;;1.25;1.10;;;23.70;59.20;;;;;;5071992;28;20395;-65
2022/06/08 02:23:05;;;;;;;1.40;1.30;;;23.70;58.60;;;;;;5071666;28;20441;-66
2022/06/08 02:25:39;;;;;;;1.23;1.10;;;23.70;58.60;;;;;;5071742;28;20469;-66
2022/06/08 02:28:36;;;;;;;1.58;1.27;;;23.70;58.60;;;;;;5071893;28;20388;-65
2022/06/08 02:31:09;;;;;;;1.55;1.10;;;23.70;58.60;;;;;;5071814;28;20393;-65
2022/06/08 02:36:39;;;;;;;1.20;1.10;;;23.70;58.60;;;;;;5071320;28;20505;-65
2022/06/08 02:39:16;;;;;;;1.30;1.20;;;23.70;58.60;;;;;;5071769;28;20376;-65
2022/06/08 02:41:44;;;;;;;1.30;1.20;;;23.70;58.60;;;;;;5071737;28;20394;-65
2022/06/08 02:44:21;;;;;;;1.65;1.30;;;23.70;58.60;;;;;;5071110;28;20402;-65
2022/06/08 02:47:10;;;;;;;2.10;1.20;;;23.70;58.60;;;;;;5071542;28;20384;-65
2022/06/08 02:49:36;;;;;;;1.50;1.10;;;23.70;58.60;;;;;;5071570;28;20872;-66
2022/06/08 02:52:06;;;;;;;1.35;1.20;;;23.70;58.60;;;;;;5070110;28;20407;-65
2022/06/08 02:54:32;;;;;;;2.00;1.17;;;23.60;58.60;;;;;;5070824;28;20520;-66
2022/06/08 02:57:20;;;;;;;1.45;1.35;;;23.60;58.60;;;;;;5070229;28;20820;-65
2022/06/08 02:59:57;;;;;;;1.25;1.10;;;23.70;58.60;;;;;;5071474;28;20388;-65
2022/06/08 03:02:39;;;;;;;1.23;1.13;;;23.60;58.60;;;;;;5071096;28;20470;-65
2022/06/08 03:05:08;;;;;;;1.40;1.20;;;23.60;58.60;;;;;;5071464;28;20396;-65
2022/06/08 03:07:44;;;;;;;2.00;1.52;;;23.60;58.70;;;;;;5071329;28;20475;-65
2022/06/08 03:10:13;;;;;;;1.70;1.20;;;23.60;59.60;;;;;;5071412;28;20388;-65
2022/06/08 03:12:43;;;;;;;2.50;1.67;;;23.70;60.10;;;;;;5070710;28;20388;-65
2022/06/08 03:15:10;;;;;;;5.67;4.30;;;23.70;60.40;;;;;;5071436;28;20459;-65
2022/06/08 03:17:37;;;;;;;4.65;3.90;;;23.70;60.70;;;;;;5071192;28;20467;-65
2022/06/08 03:20:06;;;;;;;3.55;2.22;;;23.70;60.80;;;;;;5071255;28;20391;-65
2022/06/08 03:22:32;;;;;;;5.43;2.00;;;23.80;62.20;;;;;;5070551;28;20544;-65
2022/06/08 03:24:58;;;;;;;3.73;1.97;;;23.80;62.20;;;;;;5072236;28;20927;-65
2022/06/08 03:27:24;;;;;;;3.33;1.80;;;23.80;62.60;;;;;;5090123;28;20488;-65
2022/06/08 03:29:50;;;;;;;3.45;1.92;;;23.90;62.20;;;;;;5089599;28;20449;-65
2022/06/08 03:32:16;;;;;;;4.73;1.73;;;23.90;62.30;;;;;;5089988;28;20414;-65
2022/06/08 03:34:41;;;;;;;3.65;1.80;;;23.90;62.20;;;;;;5089346;28;20794;-65
2022/06/08 03:37:08;;;;;;;2.77;1.90;;;23.90;62.30;;;;;;5089870;28;20417;-65
2022/06/08 03:39:34;;;;;;;1.98;1.70;;;23.90;62.10;;;;;;5090821;28;20401;-65
2022/06/08 03:42:00;;;;;;;3.85;1.70;;;23.90;62.30;;;;;;5091264;28;20895;-65
2022/06/08 03:44:26;;;;;;;6.83;1.70;;;24.00;62.50;;;;;;5090537;28;20390;-65
2022/06/08 03:46:57;;;;;;;3.47;1.73;;;24.00;62.70;;;;;;5090779;28;20918;-65
2022/06/08 03:49:24;;;;;;;3.30;1.70;;;23.90;61.80;;;;;;5091028;28;20374;-65
2022/06/08 03:51:52;;;;;;;5.47;1.73;;;23.90;61.70;;;;;;5090990;28;20410;-64
2022/06/08 03:54:21;;;;;;;5.93;1.73;;;23.90;61.50;;;;;;5090814;28;20413;-65
2022/06/08 03:56:51;;;;;;;5.53;1.80;;;23.90;60.80;;;;;;5094424;28;20453;-65
2022/06/08 03:59:17;;;;;;;4.10;1.70;;;23.90;60.20;;;;;;5095265;28;20385;-64
2022/06/08 04:01:44;;;;;;;6.43;2.08;;;23.90;59.90;;;;;;5093630;28;20420;-64
2022/06/08 04:04:11;;;;;;;3.63;1.70;;;23.90;59.40;;;;;;5094636;28;20390;-65
2022/06/08 04:06:37;;;;;;;3.35;1.60;;;23.80;59.30;;;;;;5093956;28;20390;-65
2022/06/08 04:09:03;;;;;;;4.35;1.60;;;23.80;59.20;;;;;;5094525;28;20409;-65
2022/06/08 04:11:29;;;;;;;3.50;1.50;;;23.80;59.50;;;;;;5093064;28;20382;-64
2022/06/08 04:13:56;;;;;;;1.90;1.40;;;23.80;59.40;;;;;;5094470;28;20906;-65
2022/06/08 04:16:22;;;;;;;4.10;1.63;;;23.80;59.20;;;;;;5094174;28;20382;-65
2022/06/08 04:18:47;;;;;;;5.55;1.70;;;23.80;59.20;;;;;;5094470;28;20439;-65
2022/06/08 04:21:14;;;;;;;4.97;1.60;;;23.80;59.20;;;;;;5094510;28;20382;-66
2022/06/08 04:23:42;;;;;;;12.00;2.10;;;23.80;59.20;;;;;;5094342;28;20398;-66
2022/06/08 04:26:09;;;;;;;7.45;2.10;;;23.80;59.00;;;;;;5094008;28;20469;-65
2022/06/08 04:28:35;;;;;;;4.97;1.55;;;23.70;59.60;;;;;;5093200;28;20397;-65
2022/06/08 04:31:02;;;;;;;4.82;1.90;;;23.70;58.50;;;;;;5094141;28;20389;-65
2022/06/08 04:33:27;;;;;;;4.43;2.00;;;23.70;58.60;;;;;;5092683;28;20799;-65
2022/06/08 04:35:53;;;;;;;7.38;2.10;;;23.60;58.40;;;;;;5093990;28;20390;-65
2022/06/08 04:38:19;;;;;;;7.97;2.20;;;23.60;58.50;;;;;;5094158;28;20431;-65
2022/06/08 04:40:46;;;;;;;3.72;1.75;;;23.60;58.40;;;;;;5093553;28;20386;-65
2022/06/08 04:43:12;;;;;;;4.55;1.70;;;23.60;58.60;;;;;;5094074;28;20413;-65
2022/06/08 04:45:38;;;;;;;4.25;1.50;;;23.60;58.60;;;;;;5092671;28;20395;-65
2022/06/08 04:48:05;;;;;;;3.35;1.48;;;23.60;58.60;;;;;;5093969;28;20386;-65
2022/06/08 04:50:31;;;;;;;4.18;1.60;;;23.60;58.60;;;;;;5093448;28;20772;-65
2022/06/08 04:52:58;;;;;;;3.05;1.65;;;23.60;58.60;;;;;;5093621;28;20410;-65
2022/06/08 04:55:24;;;;;;;4.50;1.70;;;23.60;58.60;;;;;;5093804;28;20819;-65
2022/06/08 04:57:50;;;;;;;3.17;1.50;;;23.60;58.70;;;;;;5093777;28;20402;-65
2022/06/08 05:00:18;;;;;;;4.10;1.60;;;23.60;58.60;;;;;;5093792;28;20429;-65
2022/06/08 05:02:47;;;;;;;3.38;1.60;;;23.60;58.60;;;;;;5093177;28;20382;-65
2022/06/08 05:05:23;;;;;;;2.78;1.60;;;23.60;58.60;;;;;;5093745;28;20385;-65
2022/06/08 05:07:50;;;;;;;2.80;1.90;;;23.60;58.60;;;;;;5093119;28;20374;-65
2022/06/08 05:10:17;;;;;;;2.63;1.45;;;23.50;58.50;;;;;;5093575;28;20425;-65
2022/06/08 05:12:43;;;;;;;2.97;1.70;;;23.60;58.60;;;;;;5092794;28;20386;-65
2022/06/08 05:15:13;;;;;;;3.83;1.60;;;23.50;59.10;;;;;;5093441;28;20386;-65
2022/06/08 05:17:39;;;;;;;2.05;1.60;;;23.60;58.50;;;;;;5093372;28;20389;-65
2022/06/08 05:20:06;;;;;;;2.42;1.50;;;23.50;58.50;;;;;;5092074;28;20394;-65
2022/06/08 05:22:32;;;;;;;2.53;1.55;;;23.50;58.60;;;;;;5092704;28;20715;-65
2022/06/08 05:24:58;;;;;;;3.27;1.33;;;23.50;58.50;;;;;;5093332;28;20397;-65
2022/06/08 05:27:24;;;;;;;3.17;1.55;;;23.50;58.70;;;;;;5092948;28;20393;-66
2022/06/08 05:29:50;;;;;;;5.05;1.60;;;23.60;59.20;;;;;;5091681;28;20789;-66
2022/06/08 05:32:16;;;;;;;4.25;2.70;;;23.60;59.20;;;;;;5091852;28;20386;-65
2022/06/08 05:34:41;;;;;;;6.40;5.15;;;23.60;59.70;;;;;;5092414;28;20406;-65
2022/06/08 05:37:07;;;;;;;4.05;3.08;;;23.70;60.60;;;;;;5093028;28;20443;-66
2022/06/08 05:39:32;;;;;;;4.28;2.50;;;23.70;60.60;;;;;;5092880;28;20432;-65
2022/06/08 05:41:58;;;;;;;4.07;2.60;;;23.70;60.30;;;;;;5092881;28;20378;-66
2022/06/08 05:44:24;;;;;;;3.90;2.60;;;23.70;60.80;;;;;;5092310;28;20881;-66
2022/06/08 05:46:50;;;;;;;2.93;2.40;;;23.80;60.30;;;;;;5092033;28;20414;-66
2022/06/08 05:49:17;;;;;;;3.63;2.45;;;23.80;60.30;;;;;;5092822;28;20397;-66
2022/06/08 05:51:43;;;;;;;2.85;2.00;;;23.80;60.30;;;;;;5092720;28;20461;-65
2022/06/08 05:54:10;;;;;;;3.67;2.28;;;23.80;60.20;;;;;;5092582;28;20473;-65
2022/06/08 05:56:37;;;;;;;2.72;1.85;;;23.80;60.30;;;;;;5093659;28;20394;-65
2022/06/08 05:59:04;;;;;;;2.95;1.95;;;23.80;60.40;;;;;;5092043;28;20430;-65
2022/06/08 06:01:31;;;;;;;2.37;2.00;;;23.70;60.30;;;;;;5095972;28;20419;-66
2022/06/08 06:03:59;;;;;;;3.38;1.80;;;23.70;60.00;;;;;;5104188;28;20464;-65
2022/06/08 06:06:25;;;;;;;2.35;1.50;;;23.70;59.80;;;;;;5102665;28;20389;-66
2022/06/08 06:08:50;;;;;;;2.95;1.60;;;23.70;59.80;;;;;;5091861;28;20382;-65
2022/06/08 06:11:16;;;;;;;2.13;1.57;;;23.70;59.70;;;;;;5092079;28;20386;-65
2022/06/08 06:13:42;;;;;;;2.75;1.63;;;23.70;59.60;;;;;;5091675;28;20421;-65
2022/06/08 06:16:09;;;;;;;2.00;1.50;;;23.70;59.50;;;;;;5092051;28;20439;-65
2022/06/08 06:18:35;;;;;;;1.80;1.60;;;23.70;59.90;;;;;;5090697;28;20498;-65
2022/06/08 06:21:01;;;;;;;1.98;1.58;;;23.70;60.10;;;;;;5091942;28;20779;-65
2022/06/08 06:23:27;;;;;;;1.73;1.60;;;23.70;60.00;;;;;;5104664;28;20525;-65
2022/06/08 06:25:53;;;;;;;1.75;1.40;;;23.70;60.00;;;;;;5110870;28;20475;-65
2022/06/08 06:28:19;;;;;;;1.60;1.50;;;23.70;59.90;;;;;;5090990;28;20471;-66
2022/06/08 06:30:44;;;;;;;1.50;1.30;;;23.80;59.80;;;;;;5090849;28;20902;-66
2022/06/08 06:33:12;;;;;;;1.73;1.33;;;23.80;59.70;;;;;;5091849;28;20400;-65
2022/06/08 06:35:40;;;;;;;2.00;1.30;;;23.80;59.60;;;;;;5091944;28;20394;-65
2022/06/08 06:38:06;;;;;;;2.15;1.58;;;23.80;59.50;;;;;;5090237;28;20404;-64
2022/06/08 06:40:32;;;;;;;2.60;1.30;;;23.80;59.60;;;;;;5091499;28;20429;-64
2022/06/08 06:42:59;;;;;;;2.15;1.13;;;23.80;59.50;;;;;;5100233;28;20852;-64
2022/06/08 06:45:24;;;;;;;1.90;1.35;;;23.80;59.40;;;;;;5111801;28;20924;-64
2022/06/08 06:47:50;;;;;;;2.47;1.40;;;23.80;59.30;;;;;;5111815;28;20456;-64
2022/06/08 06:50:17;;;;;;;1.63;1.30;;;23.90;59.30;;;;;;5111932;28;20384;-64
2022/06/08 06:52:44;;;;;;;1.92;1.10;;;23.80;59.20;;;;;;5110970;28;20412;-64
2022/06/08 06:55:26;;;;;;;2.20;1.30;;;23.90;59.20;;;;;;5112132;28;20432;-64
2022/06/08 06:57:52;;;;;;;1.38;1.20;;;23.90;59.20;;;;;;5111798;28;20380;-64
2022/06/08 07:00:18;;;;;;;1.60;1.20;;;23.90;59.10;;;;;;5091896;28;20426;-64
2022/06/08 07:02:44;;;;;;;1.17;0.98;;;23.90;59.10;;;;;;5090144;28;20410;-65
2022/06/08 07:05:23;;;;;;;2.20;1.30;;;23.90;59.00;;;;;;5091031;28;20389;-64
2022/06/08 07:07:49;;;;;;;1.65;1.20;;;23.90;59.00;;;;;;5091446;28;20374;-64
2022/06/08 07:10:16;;;;;;;1.45;1.20;;;23.90;58.90;;;;;;5091419;28;20382;-64
2022/06/08 07:12:42;;;;;;;1.65;1.10;;;23.90;58.90;;;;;;5089306;28;20829;-64
2022/06/08 07:15:11;;;;;;;1.30;1.10;;;23.90;58.90;;;;;;5091340;28;20425;-64
2022/06/08 07:17:37;;;;;;;1.20;1.10;;;23.90;58.90;;;;;;5091174;28;20428;-64
2022/06/08 07:20:04;;;;;;;1.37;1.20;;;23.90;58.80;;;;;;5090119;28;20390;-65
2022/06/08 07:22:30;;;;;;;1.50;1.13;;;23.90;58.80;;;;;;5110448;28;20380;-64
2022/06/08 07:24:55;;;;;;;1.20;1.00;;;23.90;58.80;;;;;;5111118;28;20403;-64
2022/06/08 07:27:22;;;;;;;1.70;1.00;;;23.90;58.70;;;;;;5110226;28;20388;-65
2022/06/08 07:29:49;;;;;;;1.55;1.10;;;23.90;58.70;;;;;;5111682;28;20403;-64
2022/06/08 07:32:14;;;;;;;1.30;0.90;;;23.90;58.70;;;;;;5114058;28;20744;-64
2022/06/08 07:34:41;;;;;;;1.60;1.00;;;23.90;58.70;;;;;;5114973;28;20404;-64
2022/06/08 07:37:07;;;;;;;1.10;0.90;;;23.90;58.60;;;;;;5108381;28;20381;-64
2022/06/08 07:39:33;;;;;;;1.20;1.00;;;23.90;58.60;;;;;;5114138;28;20918;-64
2022/06/08 07:41:59;;;;;;;1.70;1.20;;;23.90;58.60;;;;;;5115427;28;20408;-64
2022/06/08 07:44:24;;;;;;;1.42;1.10;;;23.90;58.50;;;;;;5114057;28;20396;-65
2022/06/08 07:46:50;;;;;;;1.27;1.03;;;23.90;58.50;;;;;;5113497;28;20380;-64
2022/06/08 07:49:36;;;;;;;1.20;1.10;;;23.90;58.50;;;;;;5115390;28;20538;-64
2022/06/08 07:52:15;;;;;;;1.45;1.10;;;23.90;58.40;;;;;;5115325;28;20388;-64
2022/06/08 07:54:42;;;;;;;1.30;1.00;;;23.90;58.40;;;;;;5114449;28;20427;-64
2022/06/08 07:57:23;;;;;;;2.40;1.00;;;23.90;58.30;;;;;;5116351;28;20776;-63
2022/06/08 07:59:49;;;;;;;2.25;1.00;;;23.90;58.30;;;;;;5105638;28;20381;-64
2022/06/08 08:02:15;;;;;;;1.40;1.10;;;24.00;58.30;;;;;;5094625;28;20386;-64
2022/06/08 08:04:41;;;;;;;1.27;0.90;;;24.00;58.20;;;;;;5094332;28;20378;-64
2022/06/08 08:07:07;;;;;;;1.40;1.10;;;24.00;58.10;;;;;;5094466;28;20904;-64
2022/06/08 08:09:34;;;;;;;1.30;0.90;;;24.00;58.10;;;;;;5094590;28;20390;-64
2022/06/08 08:12:02;;;;;;;2.00;1.00;;;24.00;58.10;;;;;;5094587;28;20926;-64
2022/06/08 08:14:29;;;;;;;1.05;0.95;;;24.00;58.00;;;;;;5094389;28;20439;-64
2022/06/08 08:16:54;;;;;;;1.52;1.00;;;23.90;58.00;;;;;;5094020;28;20466;-64
2022/06/08 08:19:22;;;;;;;1.25;0.90;;;24.00;58.00;;;;;;5094085;28;20416;-65
2022/06/08 08:21:49;;;;;;;1.30;0.93;;;24.00;57.90;;;;;;5105755;28;20454;-65
2022/06/08 08:24:15;;;;;;;1.20;1.00;;;24.00;57.90;;;;;;5114529;28;20433;-65
2022/06/08 08:26:44;;;;;;;1.13;1.00;;;23.90;57.80;;;;;;5114104;28;21060;-65
2022/06/08 08:29:10;;;;;;;1.47;1.10;;;23.90;57.90;;;;;;5114798;28;20437;-65
2022/06/08 08:31:37;;;;;;;1.20;1.08;;;23.90;57.90;;;;;;5101071;28;20968;-65
2022/06/08 08:34:04;;;;;;;1.60;1.02;;;23.90;57.90;;;;;;5094736;28;20414;-65
2022/06/08 08:36:30;;;;;;;3.57;1.20;;;23.90;57.80;;;;;;5094140;28;20386;-65
2022/06/08 08:38:58;;;;;;;1.80;1.10;;;23.90;57.70;;;;;;5089859;28;20945;-65
2022/06/08 08:44:34;;;;;;;1.60;1.03;;;23.90;57.60;;;;;;5103504;28;20402;-65
2022/06/08 08:47:12;;;;;;;1.88;1.05;;;23.90;57.60;;;;;;5107406;28;20463;-64
2022/06/08 08:49:43;;;;;;;1.50;1.00;;;23.90;57.60;;;;;;5114061;28;20391;-65
2022/06/08 08:52:27;;;;;;;1.08;0.90;;;23.90;57.70;;;;;;5108984;28;20393;-65
2022/06/08 08:55:01;;;;;;;1.90;1.10;;;23.90;57.70;;;;;;5113365;28;20433;-65
2022/06/08 08:57:50;;;;;;;1.35;1.20;;;23.90;57.60;;;;;;5114068;28;20384;-65
2022/06/08 09:00:46;;;;;;;1.35;1.25;;;23.90;57.70;;;;;;5113515;28;20430;-65
2022/06/08 09:03:22;;;;;;;2.03;1.25;;;23.90;57.70;;;;;;5113284;27;20404;-65
2022/06/08 09:05:51;;;;;;;1.83;1.20;;;23.90;57.70;;;;;;5112457;28;21039;-65
2022/06/08 09:08:19;;;;;;;1.42;1.20;;;24.00;57.70;;;;;;5113849;28;20818;-65
2022/06/08 09:10:45;;;;;;;2.05;1.08;;;23.90;57.60;;;;;;5111923;28;20376;-65
2022/06/08 09:13:40;;;;;;;1.63;1.10;;;23.90;57.80;;;;;;5113754;28;20418;-65
2022/06/08 09:16:06;;;;;;;5.65;4.10;;;23.90;58.30;;;;;;5083610;28;20414;-65
2022/06/08 09:18:35;;;;;;;5.70;4.30;;;24.00;59.50;;;;;;5113528;28;20388;-65
2022/06/08 09:21:35;;;;;;;3.38;2.30;;;24.00;60.20;;;;;;5111807;28;20384;-65
2022/06/08 09:24:20;;;;;;;2.20;1.90;;;24.00;59.80;;;;;;5113461;28;20423;-66
2022/06/08 09:26:47;;;;;;;2.40;2.17;;;24.10;59.50;;;;;;5113213;28;20890;-66
2022/06/08 09:29:20;;;;;;;2.50;2.00;;;24.10;59.50;;;;;;5112227;28;20392;-65
2022/06/08 09:31:47;;;;;;;2.95;1.48;;;24.10;59.20;;;;;;5113278;28;20884;-65
2022/06/08 09:34:25;;;;;;;1.75;1.65;;;24.10;58.60;;;;;;5113251;28;20420;-65
2022/06/08 09:37:26;;;;;;;2.20;1.48;;;24.10;58.30;;;;;;5112279;28;20381;-65
2022/06/08 09:39:54;;;;;;;1.92;1.33;;;24.10;58.00;;;;;;5069584;28;20381;-65
2022/06/08 09:42:57;;;;;;;1.88;1.55;;;24.10;57.90;;;;;;5113045;28;20938;-65
2022/06/08 09:45:44;;;;;;;1.98;1.38;;;24.10;57.90;;;;;;5113034;28;20385;-65
2022/06/08 09:51:39;;;;;;;1.45;1.35;;;24.10;57.80;;;;;;5112799;28;20383;-65
2022/06/08 09:54:11;;;;;;;1.70;1.15;;;24.10;57.90;;;;;;5112637;28;20448;-65
2022/06/08 09:56:40;;;;;;;2.03;1.40;;;24.10;57.80;;;;;;5112622;28;20880;-65
2022/06/08 09:59:30;;;;;;;1.60;1.10;;;24.00;57.80;;;;;;5112571;28;20441;-65
2022/06/08 10:02:04;;;;;;;1.53;1.13;;;24.10;57.80;;;;;;5112514;28;20860;-65
2022/06/08 10:04:47;;;;;;;1.45;1.10;;;24.00;57.80;;;;;;5113111;28;20384;-65
2022/06/08 10:07:58;;;;;;;1.77;1.20;;;24.00;58.20;;;;;;5112501;28;20380;-67
2022/06/08 10:10:41;;;;;;;1.90;1.30;;;24.00;58.50;;;;;;5112628;27;20894;-67
2022/06/08 10:13:20;;;;;;;3.97;1.30;;;24.00;58.00;;;;;;5112459;28;20483;-65
2022/06/08 10:16:02;;;;;;;2.10;1.20;;;24.00;57.90;;;;;;5111101;28;20384;-65
2022/06/08 10:18:39;;;;;;;1.60;1.30;;;24.00;58.60;;;;;;5091597;28;20465;-65
2022/06/08 10:21:22;;;;;;;2.60;1.27;;;24.10;58.90;;;;;;5090674;28;20378;-65
2022/06/08 10:24:21;;;;;;;3.58;1.30;;;24.10;58.90;;;;;;5086819;28;20758;-65
2022/06/08 10:26:52;;;;;;;1.98;1.40;;;24.20;59.00;;;;;;5090378;28;20443;-65
2022/06/08 10:29:21;;;;;;;2.15;1.30;;;24.20;59.00;;;;;;5089710;28;20426;-65
2022/06/08 10:32:29;;;;;;;5.00;1.30;;;24.20;59.20;;;;;;5090719;28;20393;-66
2022/06/08 10:34:55;;;;;;;3.47;1.40;;;24.20;59.30;;;;;;5089159;28;20463;-65
2022/06/08 10:37:36;;;;;;;2.35;1.40;;;24.20;59.10;;;;;;5090859;28;20378;-65
2022/06/08 10:40:28;;;;;;;2.22;1.38;;;24.20;59.20;;;;;;5089968;28;20409;-65
2022/06/08 10:42:54;;;;;;;2.50;1.42;;;24.20;59.30;;;;;;5089161;28;20427;-66
2022/06/08 10:45:23;;;;;;;3.58;1.60;;;24.20;59.40;;;;;;5089875;28;20477;-65
2022/06/08 10:48:38;;;;;;;1.90;1.20;;;24.20;59.30;;;;;;5090589;28;20390;-65
2022/06/08 10:51:35;;;;;;;2.20;1.30;;;24.30;59.40;;;;;;5087443;28;20398;-65
2022/06/08 10:56:49;;;;;;;1.67;1.20;;;24.30;59.00;;;;;;5090033;28;20386;-65
2022/06/08 10:59:24;;;;;;;1.38;1.10;;;24.30;58.80;;;;;;5085494;28;20518;-65
2022/06/08 11:01:50;;;;;;;1.60;1.10;;;24.30;59.10;;;;;;5088179;28;20402;-66
2022/06/08 11:04:37;;;;;;;1.98;1.20;;;24.30;58.70;;;;;;5088651;28;20406;-64
2022/06/08 11:07:07;;;;;;;1.60;1.23;;;24.30;59.30;;;;;;5084289;28;20406;-64
2022/06/08 11:09:35;;;;;;;2.53;1.25;;;24.30;58.40;;;;;;5087398;28;20394;-64
2022/06/08 11:12:01;;;;;;;3.67;1.38;;;24.20;58.20;;;;;;5088920;28;20389;-65
2022/06/08 11:14:52;;;;;;;2.30;1.40;;;24.30;58.00;;;;;;5088551;28;20414;-64
2022/06/08 11:17:27;;;;;;;1.40;1.30;;;24.20;57.70;;;;;;5089075;28;20414;-65
2022/06/08 11:20:16;;;;;;;2.20;1.50;;;24.30;57.60;;;;;;5090003;28;20382;-65
2022/06/08 11:22:53;;;;;;;2.10;1.25;;;24.30;57.60;;;;;;5047514;28;20382;-65
2022/06/08 11:25:30;;;;;;;1.80;1.30;;;24.30;57.70;;;;;;5089928;28;20378;-65
2022/06/08 11:28:33;;;;;;;1.40;1.10;;;24.30;57.60;;;;;;5070562;28;20388;-64
2022/06/08 11:31:08;;;;;;;1.93;1.27;;;24.30;57.60;;;;;;5070464;28;20429;-65
2022/06/08 11:34:13;;;;;;;1.58;1.08;;;24.30;57.80;;;;;;5069279;28;20407;-64
2022/06/08 11:37:12;;;;;;;1.35;1.00;;;24.30;57.30;;;;;;5069329;28;20391;-64
2022/06/08 11:39:56;;;;;;;1.50;1.13;;;24.30;57.40;;;;;;5070826;28;20930;-64
2022/06/08 11:42:32;;;;;;;1.92;1.00;;;24.30;57.30;;;;;;5069382;28;20395;-65
2022/06/08 11:45:13;;;;;;;1.25;0.90;;;24.20;57.30;;;;;;5088978;28;20392;-65
2022/06/08 11:47:56;;;;;;;1.98;1.20;;;24.30;57.20;;;;;;5090780;28;20377;-65
2022/06/08 11:50:31;;;;;;;2.00;1.27;;;24.30;57.10;;;;;;5090633;28;20437;-65
2022/06/08 11:53:06;;;;;;;1.20;1.00;;;24.30;57.20;;;;;;5090094;28;20382;-64
2022/06/08 11:55:46;;;;;;;1.30;1.17;;;24.20;57.00;;;;;;5090362;28;20402;-64
2022/06/08 11:58:20;;;;;;;1.70;1.30;;;24.20;57.00;;;;;;5089196;28;20386;-64
2022/06/08 12:00:55;;;;;;;2.08;1.10;;;24.20;57.00;;;;;;5090394;28;20431;-64
2022/06/08 12:03:40;;;;;;;1.63;1.40;;;24.30;57.00;;;;;;5089332;28;20398;-64
2022/06/08 12:06:38;;;;;;;1.55;1.20;;;24.30;57.00;;;;;;5090775;28;20870;-64
2022/06/08 12:09:31;;;;;;;1.53;1.20;;;24.30;57.10;;;;;;5090032;28;20516;-64
2022/06/08 12:12:18;;;;;;;1.38;1.10;;;24.30;57.10;;;;;;5090641;28;20386;-64
2022/06/08 12:14:45;;;;;;;1.20;1.00;;;24.30;56.90;;;;;;5090267;28;20418;-64
2022/06/08 12:17:22;;;;;;;1.42;1.00;;;24.30;56.90;;;;;;5090832;28;20417;-64
2022/06/08 12:19:57;;;;;;;1.65;1.10;;;24.30;56.90;;;;;;5094895;28;20378;-64
2022/06/08 12:22:32;;;;;;;1.52;1.10;;;24.30;56.90;;;;;;5094228;28;20397;-65
2022/06/08 12:25:07;;;;;;;1.30;1.00;;;24.30;56.90;;;;;;5093751;28;20484;-64
2022/06/08 12:27:52;;;;;;;1.67;1.30;;;24.30;56.80;;;;;;5093770;28;20398;-65
2022/06/08 12:30:30;;;;;;;1.33;1.10;;;24.30;56.90;;;;;;5094003;28;20885;-64
2022/06/08 12:33:01;;;;;;;1.40;1.10;;;24.30;56.90;;;;;;5093396;28;20390;-64
2022/06/08 12:35:28;;;;;;;1.40;1.00;;;24.30;56.90;;;;;;5093909;28;20791;-64
2022/06/08 12:38:20;;;;;;;1.25;1.15;;;24.30;56.90;;;;;;5093807;28;20397;-65
2022/06/08 12:41:19;;;;;;;1.40;1.20;;;24.30;56.80;;;;;;5093976;28;20943;-64
2022/06/08 12:43:52;;;;;;;1.42;1.27;;;24.30;56.90;;;;;;5070436;28;20417;-64
2022/06/08 12:46:34;;;;;;;1.30;1.15;;;24.30;56.80;;;;;;5093697;28;20390;-64
2022/06/08 12:49:21;;;;;;;1.48;1.20;;;24.30;56.90;;;;;;5093318;28;20386;-64
2022/06/08 12:51:58;;;;;;;1.15;1.05;;;24.30;56.70;;;;;;5093447;28;20439;-64
2022/06/08 12:54:28;;;;;;;1.30;1.20;;;24.30;56.80;;;;;;5093131;28;20429;-64
2022/06/08 12:57:01;;;;;;;1.00;0.90;;;24.30;56.70;;;;;;5093194;28;20366;-64
2022/06/08 12:59:27;;;;;;;1.17;1.00;;;24.30;56.70;;;;;;5093333;28;20420;-65
2022/06/08 13:01:56;;;;;;;1.13;1.02;;;24.30;56.70;;;;;;5093637;28;20937;-65
2022/06/08 13:04:24;;;;;;;1.20;1.10;;;24.30;56.70;;;;;;5092029;28;20424;-65
2022/06/08 13:06:52;;;;;;;1.30;1.20;;;24.30;56.70;;;;;;5092989;28;20418;-64
2022/06/08 13:09:20;;;;;;;1.10;1.00;;;24.30;56.80;;;;;;5093364;28;20397;-64
2022/06/08 13:11:49;;;;;;;1.20;0.90;;;24.30;56.80;;;;;;5095378;28;20380;-64
2022/06/08 13:14:18;;;;;;;1.20;1.10;;;24.30;56.70;;;;;;5101682;28;20913;-65
2022/06/08 13:16:45;;;;;;;1.50;1.10;;;24.30;56.70;;;;;;5092889;28;20863;-66
2022/06/08 13:19:13;;;;;;;1.40;1.23;;;24.30;56.70;;;;;;5092084;28;20382;-66
2022/06/08 13:21:42;;;;;;;1.50;1.10;;;24.30;56.70;;;;;;5092815;28;20401;-65
2022/06/08 13:24:09;;;;;;;1.52;1.15;;;24.30;56.70;;;;;;5093323;28;20385;-65
2022/06/08 13:26:37;;;;;;;1.20;1.10;;;24.30;56.80;;;;;;5094009;28;20412;-65
2022/06/08 13:29:05;;;;;;;1.20;1.10;;;24.30;56.70;;;;;;5092270;28;20382;-65
2022/06/08 13:31:31;;;;;;;3.17;1.10;;;24.30;56.70;;;;;;5092994;28;20393;-65